MSC Mara — V7NF9 — position and weather

sailwx.info

Track history (hours):
 
Tides and Currents Weather Stations Pressure Air Temp Water Temp Dewpoint Dewpoint Depression Visibility Wind Speed Wind Dir Waves Ship Positions

MSC Mara

Last reported at 2015-Jan-26 21:32 UTC. Time now 2015-Jan-30 08:00 UTC.
Position S 37°19' E 150°21'.

Length 294 m; draft 11.2 m.

Type: Ship (hazmat cat C). MMSI: 538002955.

Date/timePositionNaut miles runAvg speedWind from/ knotsBaromVisibWave heightAir tempDewpointWater temp
2015-Jan-26 21:32S 37°19' E 150°21'12 9.6
2015-Jan-26 20:18S 37°31' E 150°17'17 9.7
2015-Jan-26 18:33S 37°43' E 150°02'1111.2
2015-Jan-26 17:33S 37°50' E 149°51'1111.0
2015-Jan-26 16:33S 37°57' E 149°40'4310.4
2015-Jan-26 12:29S 38°22' E 148°57'9510.4
2015-Jan-26 03:23S 39°06' E 147°10'8 9.8
2015-Jan-26 02:33S 39°09' E 146°60'1010.3
2015-Jan-26 01:33S 39°12' E 146°47'1110.7
2015-Jan-26 00:33S 39°17' E 146°34'1110.9
2015-Jan-25 23:33S 39°17' E 146°20'1111.0
2015-Jan-25 22:33S 39°17' E 146°06'1111.0
2015-Jan-25 21:33S 39°15' E 145°52'15711.0
2015-Jan-25 07:15S 38°52' E 142°32'810.9
2015-Jan-25 06:31S 38°50' E 142°22'1111.1
2015-Jan-25 05:33S 38°49' E 142°08'1111.3
2015-Jan-25 04:33S 38°47' E 141°54'1111.3
2015-Jan-25 03:33S 38°45' E 141°40'  
2015-Jan-20 20:25S 35°44' E 116°36'1011.9
2015-Jan-20 19:33S 35°42' E 116°24'1312.0
2015-Jan-20 18:27S 35°38' E 116°08'1112.5
2015-Jan-20 17:33S 35°36' E 115°54'1212.3
2015-Jan-20 16:33S 35°33' E 115°40'1211.8
2015-Jan-20 15:33S 35°30' E 115°26'1212.0
2015-Jan-20 14:33S 35°27' E 115°11'1212.5
2015-Jan-20 13:33S 35°24' E 114°56'1212.5
2015-Jan-20 12:33S 35°22' E 114°41'1211.9
2015-Jan-20 11:33S 35°19' E 114°27'1211.8
2015-Jan-20 10:33S 35°16' E 114°13'1212.0
2015-Jan-20 09:34S 35°13' E 113°59'1212.4
2015-Jan-20 08:33S 35°10' E 113°44'1312.7
2015-Jan-20 07:33S 35°07' E 113°29'1313.2
2015-Jan-20 06:33S 35°04' E 113°13'1313.3
2015-Jan-20 05:33S 35°01' E 112°58'1615.9
2015-Jan-20 04:33S 34°58' E 112°39'1312.7
2015-Jan-20 03:33S 34°55' E 112°23'1212.3
2015-Jan-20 02:33S 34°52' E 112°09'1211.7
2015-Jan-20 01:32S 34°50' E 111°55'1211.5
2015-Jan-20 00:30S 34°47' E 111°41'  
Track history (hours):
 
Tides and Currents Weather Stations Pressure Air Temp Water Temp Dewpoint Dewpoint Depression Visibility Wind Speed Wind Dir Waves Ship Positions

MSC Mara

Last reported at 2015-Jan-26 21:32 UTC. Time now 2015-Jan-30 08:00 UTC.
Position S 37°19' E 150°21'.

Length 294 m; draft 11.2 m.

Type: Ship (hazmat cat C). MMSI: 538002955.

Date/timePositionNaut miles runAvg speedWind from/ knotsBaromVisibWave heightAir tempDewpointWater temp
2015-Jan-26 21:32S 37°19' E 150°21'12 9.6
2015-Jan-26 20:18S 37°31' E 150°17'17 9.7
2015-Jan-26 18:33S 37°43' E 150°02'1111.2
2015-Jan-26 17:33S 37°50' E 149°51'1111.0
2015-Jan-26 16:33S 37°57' E 149°40'4310.4
2015-Jan-26 12:29S 38°22' E 148°57'9510.4
2015-Jan-26 03:23S 39°06' E 147°10'8 9.8
2015-Jan-26 02:33S 39°09' E 146°60'1010.3
2015-Jan-26 01:33S 39°12' E 146°47'1110.7
2015-Jan-26 00:33S 39°17' E 146°34'1110.9
2015-Jan-25 23:33S 39°17' E 146°20'1111.0
2015-Jan-25 22:33S 39°17' E 146°06'1111.0
2015-Jan-25 21:33S 39°15' E 145°52'15711.0
2015-Jan-25 07:15S 38°52' E 142°32'810.9
2015-Jan-25 06:31S 38°50' E 142°22'1111.1
2015-Jan-25 05:33S 38°49' E 142°08'1111.3
2015-Jan-25 04:33S 38°47' E 141°54'1111.3
2015-Jan-25 03:33S 38°45' E 141°40'  
2015-Jan-20 20:25S 35°44' E 116°36'1011.9
2015-Jan-20 19:33S 35°42' E 116°24'1312.0
2015-Jan-20 18:27S 35°38' E 116°08'1112.5
2015-Jan-20 17:33S 35°36' E 115°54'1212.3
2015-Jan-20 16:33S 35°33' E 115°40'1211.8
2015-Jan-20 15:33S 35°30' E 115°26'1212.0
2015-Jan-20 14:33S 35°27' E 115°11'1212.5
2015-Jan-20 13:33S 35°24' E 114°56'1212.5
2015-Jan-20 12:33S 35°22' E 114°41'1211.9
2015-Jan-20 11:33S 35°19' E 114°27'1211.8
2015-Jan-20 10:33S 35°16' E 114°13'1212.0
2015-Jan-20 09:34S 35°13' E 113°59'1212.4
2015-Jan-20 08:33S 35°10' E 113°44'1312.7
2015-Jan-20 07:33S 35°07' E 113°29'1313.2
2015-Jan-20 06:33S 35°04' E 113°13'1313.3
2015-Jan-20 05:33S 35°01' E 112°58'1615.9
2015-Jan-20 04:33S 34°58' E 112°39'1312.7
2015-Jan-20 03:33S 34°55' E 112°23'1212.3
2015-Jan-20 02:33S 34°52' E 112°09'1211.7
2015-Jan-20 01:32S 34°50' E 111°55'1211.5
2015-Jan-20 00:30S 34°47' E 111°41'  

Dump ship's entire track history